Time;durP1;ratioP1;P1;durP2;ratioP2;P2;SDS_P1;SDS_P2;PMS_P1;PMS_P2;Temp;Humidity;BMP_temperature;BMP_pressure;BME280_temperature;BME280_humidity;BME280_pressure;Samples;Min_cycle;Max_cycle;Signal;HPM_P1;HPM_P2
2022/10/04 00:00:25;;;;;;;4.77;4.30;;;;;;;;;;5079568;28;20827;-75
2022/10/04 00:02:54;;;;;;;5.50;4.37;;;;;;;;;;5079113;28;20248;-75
2022/10/04 00:05:22;;;;;;;5.67;4.37;;;;;;;;;;5078807;28;20615;-75
2022/10/04 00:07:53;;;;;;;5.10;4.40;;;;;;;;;;5073572;28;20290;-75
2022/10/04 00:10:22;;;;;;;5.37;4.17;;;;;;;;;;5085777;28;20282;-75
2022/10/04 00:12:50;;;;;;;5.80;4.30;;;;;;;;;;5091338;28;20225;-75
2022/10/04 00:15:22;;;;;;;4.93;4.00;;;;;;;;;;5080533;28;20308;-75
2022/10/04 00:18:01;;;;;;;5.00;4.07;;;;;;;;;;5085497;28;20393;-76
2022/10/04 00:20:47;;;;;;;6.80;3.70;;;;;;;;;;5085977;28;20254;-76
2022/10/04 00:23:29;;;;;;;4.30;3.90;;;;;;;;;;5087043;28;20202;-76
2022/10/04 00:25:57;;;;;;;4.93;3.73;;;;;;;;;;5079408;28;20249;-75
2022/10/04 00:28:45;;;;;;;4.87;3.90;;;;;;;;;;5075198;28;20732;-75
2022/10/04 00:31:16;;;;;;;5.97;3.93;;;;;;;;;;5088173;28;20716;-75
2022/10/04 00:33:44;;;;;;;4.80;4.00;;;;;;;;;;5075877;28;20282;-76
2022/10/04 00:36:30;;;;;;;4.33;3.93;;;;;;;;;;5073858;28;20242;-76
2022/10/04 00:39:13;;;;;;;4.90;4.20;;;;;;;;;;5081682;28;20724;-76
2022/10/04 00:41:45;;;;;;;4.20;3.80;;;;;;;;;;5079783;28;20782;-75
2022/10/04 00:44:17;;;;;;;4.20;3.80;;;;;;;;;;5085777;28;20233;-75
2022/10/04 00:46:46;;;;;;;4.60;3.87;;;;;;;;;;5075966;28;20214;-75
2022/10/04 00:49:14;;;;;;;4.97;4.27;;;;;;;;;;5081707;28;20641;-75
2022/10/04 00:51:43;;;;;;;5.00;4.07;;;;;;;;;;5077617;28;20277;-76
2022/10/04 00:54:13;;;;;;;5.93;4.20;;;;;;;;;;5083391;28;20301;-75
2022/10/04 00:56:43;;;;;;;4.17;3.77;;;;;;;;;;5073253;28;20286;-75
2022/10/04 00:59:18;;;;;;;3.93;3.53;;;;;;;;;;5075458;28;20284;-75
2022/10/04 01:01:46;;;;;;;4.80;4.27;;;;;;;;;;5079948;28;20307;-74
2022/10/04 01:04:17;;;;;;;5.23;4.10;;;;;;;;;;5079963;28;20694;-75
2022/10/04 01:06:44;;;;;;;5.37;4.10;;;;;;;;;;5077319;28;20290;-75
2022/10/04 01:09:14;;;;;;;4.50;4.10;;;;;;;;;;5088921;28;20309;-76
2022/10/04 01:11:43;;;;;;;4.60;4.20;;;;;;;;;;5089756;28;20223;-75
2022/10/04 01:14:14;;;;;;;4.57;4.17;;;;;;;;;;5087358;28;20230;-75
2022/10/04 01:16:41;;;;;;;4.47;4.03;;;;;;;;;;5091699;28;20706;-75
2022/10/04 01:19:27;;;;;;;4.90;3.93;;;;;;;;;;5082544;28;20289;-75
2022/10/04 01:21:59;;;;;;;4.40;4.00;;;;;;;;;;5092007;28;20217;-75
2022/10/04 01:24:34;;;;;;;4.73;3.83;;;;;;;;;;5081465;28;20681;-75
2022/10/04 01:27:01;;;;;;;4.90;3.87;;;;;;;;;;5073801;28;20197;-75
2022/10/04 01:29:30;;;;;;;4.93;3.77;;;;;;;;;;5072771;28;20302;-75
2022/10/04 01:31:59;;;;;;;4.57;3.90;;;;;;;;;;5088809;28;20233;-76
2022/10/04 01:34:27;;;;;;;5.70;4.10;;;;;;;;;;5079643;28;20237;-75
2022/10/04 01:36:56;;;;;;;4.37;3.80;;;;;;;;;;5079874;28;20641;-75
2022/10/04 01:39:24;;;;;;;4.40;3.77;;;;;;;;;;5076744;28;20203;-75
2022/10/04 01:41:56;;;;;;;4.53;3.93;;;;;;;;;;5079793;28;20229;-75
2022/10/04 01:44:28;;;;;;;5.07;4.03;;;;;;;;;;5086234;28;20286;-75
2022/10/04 01:46:57;;;;;;;4.10;3.70;;;;;;;;;;5073114;28;20666;-76
2022/10/04 01:49:27;;;;;;;5.60;3.53;;;;;;;;;;5077559;28;20282;-75
2022/10/04 01:51:56;;;;;;;4.77;3.50;;;;;;;;;;5079265;28;20226;-74
2022/10/04 01:54:31;;;;;;;4.63;3.93;;;;;;;;;;5074401;28;20633;-74
2022/10/04 01:57:01;;;;;;;6.13;3.87;;;;;;;;;;5079957;28;20198;-75
2022/10/04 01:59:30;;;;;;;4.50;4.10;;;;;;;;;;5080215;28;20254;-75
2022/10/04 02:02:00;;;;;;;4.93;4.00;;;;;;;;;;5081708;28;20654;-76
2022/10/04 02:04:29;;;;;;;4.23;3.80;;;;;;;;;;5082298;28;20209;-75
2022/10/04 02:06:57;;;;;;;4.83;3.57;;;;;;;;;;5083684;28;20226;-74
2022/10/04 02:09:26;;;;;;;4.40;4.00;;;;;;;;;;5077952;28;20194;-75
2022/10/04 02:11:56;;;;;;;5.07;4.23;;;;;;;;;;5072786;28;20227;-75
2022/10/04 02:14:25;;;;;;;4.47;4.07;;;;;;;;;;5075644;28;20203;-76
2022/10/04 02:16:53;;;;;;;6.97;3.93;;;;;;;;;;5076285;28;20294;-75
2022/10/04 02:19:21;;;;;;;5.23;3.83;;;;;;;;;;5080719;28;20657;-76
2022/10/04 02:21:49;;;;;;;4.23;3.87;;;;;;;;;;5080988;28;20313;-75
2022/10/04 02:24:16;;;;;;;4.30;3.90;;;;;;;;;;5078222;28;20214;-75
2022/10/04 02:26:49;;;;;;;4.53;3.87;;;;;;;;;;5078466;28;20304;-75
2022/10/04 02:29:16;;;;;;;7.03;4.17;;;;;;;;;;5074958;28;20215;-75
2022/10/04 02:34:30;;;;;;;5.73;4.47;;;;;;;;;;5073127;28;20199;-75
2022/10/04 02:36:57;;;;;;;5.27;4.50;;;;;;;;;;5072768;28;20289;-75
2022/10/04 02:39:27;;;;;;;4.20;3.80;;;;;;;;;;5092182;28;20281;-75
2022/10/04 02:41:57;;;;;;;5.87;4.40;;;;;;;;;;5075165;28;20801;-75
2022/10/04 02:44:26;;;;;;;5.63;4.73;;;;;;;;;;5089669;28;20210;-75
2022/10/04 02:46:57;;;;;;;5.20;4.70;;;;;;;;;;5079069;28;20643;-75
2022/10/04 02:49:29;;;;;;;5.73;4.40;;;;;;;;;;5091152;28;20226;-75
2022/10/04 02:52:00;;;;;;;4.67;4.17;;;;;;;;;;5088230;28;20878;-75
2022/10/04 02:54:29;;;;;;;5.17;4.53;;;;;;;;;;5090986;28;20218;-75
2022/10/04 02:56:57;;;;;;;5.00;4.47;;;;;;;;;;5077379;28;20757;-75
2022/10/04 02:59:25;;;;;;;6.20;4.53;;;;;;;;;;5086508;28;20709;-75
2022/10/04 03:01:54;;;;;;;5.70;4.93;;;;;;;;;;5076344;28;20309;-75
2022/10/04 03:04:23;;;;;;;5.83;4.87;;;;;;;;;;5079856;28;20282;-75
2022/10/04 03:06:51;;;;;;;5.17;4.67;;;;;;;;;;5079060;28;20256;-75
2022/10/04 03:09:20;;;;;;;5.93;5.20;;;;;;;;;;5075162;28;20286;-75
2022/10/04 03:11:48;;;;;;;7.00;5.30;;;;;;;;;;5075413;28;20244;-75
2022/10/04 03:14:17;;;;;;;5.90;4.80;;;;;;;;;;5089358;28;20202;-75
2022/10/04 03:16:45;;;;;;;5.67;5.07;;;;;;;;;;5085085;28;20206;-75
2022/10/04 03:19:14;;;;;;;7.33;4.90;;;;;;;;;;5085083;28;20299;-76
2022/10/04 03:21:43;;;;;;;6.37;5.73;;;;;;;;;;5085191;28;20261;-76
2022/10/04 03:24:12;;;;;;;5.97;5.23;;;;;;;;;;5085010;28;20281;-76
2022/10/04 03:26:42;;;;;;;6.63;5.87;;;;;;;;;;5088831;28;20277;-76
2022/10/04 03:29:11;;;;;;;7.00;5.77;;;;;;;;;;5080294;28;20226;-75
2022/10/04 03:31:40;;;;;;;6.50;5.90;;;;;;;;;;5091353;28;20282;-75
2022/10/04 03:34:13;;;;;;;6.43;5.27;;;;;;;;;;5084957;28;20237;-75
2022/10/04 03:36:41;;;;;;;6.20;5.53;;;;;;;;;;5081716;28;20290;-75
2022/10/04 03:39:10;;;;;;;7.73;5.77;;;;;;;;;;5078535;28;20302;-75
2022/10/04 03:41:39;;;;;;;8.13;6.20;;;;;;;;;;5082318;28;20255;-75
2022/10/04 03:44:08;;;;;;;6.33;5.73;;;;;;;;;;5077212;28;20677;-75
2022/10/04 03:46:36;;;;;;;5.80;5.20;;;;;;;;;;5079296;28;20234;-75
2022/10/04 03:49:04;;;;;;;6.73;5.90;;;;;;;;;;5074673;28;20203;-75
2022/10/04 03:51:32;;;;;;;7.07;5.43;;;;;;;;;;5077404;28;20199;-75
2022/10/04 03:54:00;;;;;;;5.97;5.37;;;;;;;;;;5087598;28;20627;-75
2022/10/04 03:56:30;;;;;;;6.67;5.97;;;;;;;;;;5081798;28;20332;-75
2022/10/04 03:58:57;;;;;;;8.03;5.80;;;;;;;;;;5085221;28;20248;-75
2022/10/04 04:01:32;;;;;;;8.03;6.07;;;;;;;;;;5087521;28;20273;-75
2022/10/04 04:04:03;;;;;;;6.80;6.03;;;;;;;;;;5082483;28;20277;-76
2022/10/04 04:06:36;;;;;;;6.83;5.93;;;;;;;;;;5086439;28;20245;-76
2022/10/04 04:09:05;;;;;;;6.57;5.97;;;;;;;;;;5093103;28;20198;-75
2022/10/04 04:11:34;;;;;;;8.87;5.90;;;;;;;;;;5077750;28;20459;-75
2022/10/04 04:14:04;;;;;;;6.93;6.07;;;;;;;;;;5078875;28;20281;-76
2022/10/04 04:16:31;;;;;;;6.40;5.80;;;;;;;;;;5079650;28;20202;-75
2022/10/04 04:19:00;;;;;;;7.23;6.50;;;;;;;;;;5086850;28;20641;-76
2022/10/04 04:21:28;;;;;;;9.77;7.30;;;;;;;;;;5086528;28;20250;-75
2022/10/04 04:23:57;;;;;;;7.60;6.80;;;;;;;;;;5091051;28;20286;-75
2022/10/04 04:26:27;;;;;;;7.40;6.63;;;;;;;;;;5080216;28;20278;-75
2022/10/04 04:28:57;;;;;;;8.13;7.33;;;;;;;;;;5091694;28;20216;-75
2022/10/04 04:31:26;;;;;;;7.37;6.67;;;;;;;;;;5078153;28;20230;-76
2022/10/04 04:33:59;;;;;;;7.80;6.60;;;;;;;;;;5087606;28;20234;-76
2022/10/04 04:36:27;;;;;;;8.07;7.23;;;;;;;;;;5073642;28;20203;-75
2022/10/04 04:41:39;;;;;;;9.47;7.20;;;;;;;;;;5080751;28;20296;-75
2022/10/04 04:44:16;;;;;;;9.03;7.70;;;;;;;;;;5078506;28;20198;-76
2022/10/04 04:46:44;;;;;;;10.50;8.30;;;;;;;;;;5073398;28;20198;-75
2022/10/04 04:49:12;;;;;;;10.63;8.23;;;;;;;;;;5089756;28;20208;-75
2022/10/04 04:51:41;;;;;;;9.00;7.90;;;;;;;;;;5085712;28;20230;-75
2022/10/04 04:54:08;;;;;;;10.43;8.57;;;;;;;;;;5075546;28;20677;-74
2022/10/04 04:56:36;;;;;;;10.00;7.93;;;;;;;;;;5075454;28;20570;-75
2022/10/04 04:59:05;;;;;;;10.63;8.50;;;;;;;;;;5078640;28;20236;-75
2022/10/04 05:01:35;;;;;;;10.30;9.27;;;;;;;;;;5080156;28;20649;-75
2022/10/04 05:04:03;;;;;;;12.33;9.07;;;;;;;;;;5076796;28;20231;-75
2022/10/04 05:06:31;;;;;;;12.27;9.37;;;;;;;;;;5080364;28;20202;-76
2022/10/04 05:08:59;;;;;;;13.63;9.87;;;;;;;;;;5073440;28;20276;-75
2022/10/04 05:11:28;;;;;;;11.00;9.40;;;;;;;;;;5078356;28;20202;-75
2022/10/04 05:13:57;;;;;;;11.53;9.67;;;;;;;;;;5080880;28;20678;-75
2022/10/04 05:16:26;;;;;;;12.47;10.10;;;;;;;;;;5089436;28;20290;-75
2022/10/04 05:18:57;;;;;;;12.60;10.27;;;;;;;;;;5081383;28;20651;-75
2022/10/04 05:21:28;;;;;;;11.77;9.97;;;;;;;;;;5087591;28;20646;-77
2022/10/04 05:23:57;;;;;;;11.60;9.80;;;;;;;;;;5091617;28;20198;-76
2022/10/04 05:26:26;;;;;;;13.23;10.00;;;;;;;;;;5078627;28;20286;-76
2022/10/04 05:28:54;;;;;;;14.53;10.63;;;;;;;;;;5087547;28;20225;-76
2022/10/04 05:31:32;;;;;;;12.00;10.67;;;;;;;;;;5080174;28;20274;-76
2022/10/04 05:34:01;;;;;;;14.47;10.33;;;;;;;;;;5078117;28;20234;-76
2022/10/04 05:36:36;;;;;;;14.63;11.00;;;;;;;;;;5087483;28;20230;-75
2022/10/04 05:39:06;;;;;;;12.07;10.07;;;;;;;;;;5075492;28;20202;-75
2022/10/04 05:41:39;;;;;;;13.23;11.03;;;;;;;;;;5076210;28;20302;-75
2022/10/04 05:44:18;;;;;;;12.30;11.00;;;;;;;;;;5080465;28;20289;-77
2022/10/04 05:46:45;;;;;;;16.37;11.87;;;;;;;;;;5081198;28;20237;-78
2022/10/04 05:49:16;;;;;;;14.13;10.87;;;;;;;;;;5079179;28;20285;-77
2022/10/04 05:51:49;;;;;;;15.03;11.23;;;;;;;;;;5089467;28;20696;-77
2022/10/04 05:54:20;;;;;;;15.70;11.67;;;;;;;;;;5093367;28;20233;-77
2022/10/04 05:56:58;;;;;;;14.57;11.37;;;;;;;;;;5090269;28;20625;-77
2022/10/04 05:59:37;;;;;;;14.10;11.83;;;;;;;;;;5083791;28;20234;-77
2022/10/04 06:02:10;;;;;;;15.30;12.63;;;;;;;;;;5083208;28;20226;-77
2022/10/04 06:04:55;;;;;;;16.67;11.90;;;;;;;;;;5086461;28;20628;-78
2022/10/04 06:07:27;;;;;;;16.13;11.90;;;;;;;;;;5091258;28;20696;-78
2022/10/04 06:10:04;;;;;;;15.10;12.60;;;;;;;;;;5092400;28;20208;-78
2022/10/04 06:12:40;;;;;;;17.90;12.30;;;;;;;;;;5087696;28;20213;-77
2022/10/04 06:15:31;;;;;;;19.23;13.07;;;;;;;;;;5089212;28;20206;-77
2022/10/04 06:18:08;;;;;;;15.00;12.00;;;;;;;;;;5094695;28;20193;-77
2022/10/04 06:21:05;;;;;;;16.33;13.33;;;;;;;;;;5091059;28;20320;-78
2022/10/04 06:23:37;;;;;;;16.47;13.30;;;;;;;;;;5052970;28;20310;-77
2022/10/04 06:26:07;;;;;;;17.60;13.37;;;;;;;;;;5053775;28;20254;-77
2022/10/04 06:28:36;;;;;;;19.10;14.17;;;;;;;;;;5053735;28;20251;-78
2022/10/04 06:31:16;;;;;;;17.73;14.47;;;;;;;;;;5052423;28;20196;-78
2022/10/04 06:33:55;;;;;;;17.80;13.97;;;;;;;;;;5053410;28;20242;-78
2022/10/04 06:36:39;;;;;;;21.40;13.80;;;;;;;;;;5053262;28;20286;-77
2022/10/04 06:39:18;;;;;;;18.97;14.67;;;;;;;;;;5053789;28;20227;-79
2022/10/04 06:42:00;;;;;;;23.17;14.10;;;;;;;;;;5049211;28;20311;-78
2022/10/04 06:44:45;;;;;;;18.20;14.47;;;;;;;;;;5052449;28;20231;-78
2022/10/04 06:47:19;;;;;;;20.77;14.60;;;;;;;;;;5050320;28;20223;-78
2022/10/04 06:49:49;;;;;;;20.60;15.07;;;;;;;;;;5052860;28;20690;-78
2022/10/04 06:52:26;;;;;;;21.33;15.27;;;;;;;;;;5053864;28;20234;-78
2022/10/04 06:55:10;;;;;;;21.43;14.77;;;;;;;;;;5053235;28;20207;-78
2022/10/04 06:57:50;;;;;;;20.97;15.40;;;;;;;;;;5072644;28;20225;-78
2022/10/04 07:00:19;;;;;;;23.07;15.67;;;;;;;;;;5095326;28;20283;-78
2022/10/04 07:02:48;;;;;;;26.83;15.87;;;;;;;;;;5080040;28;20222;-78
2022/10/04 07:05:29;;;;;;;22.77;16.43;;;;;;;;;;5075105;28;20285;-78
2022/10/04 07:08:06;;;;;;;25.30;16.37;;;;;;;;;;5075051;28;20202;-78
2022/10/04 07:10:38;;;;;;;25.40;16.10;;;;;;;;;;5075334;28;20658;-78
2022/10/04 07:13:15;;;;;;;27.50;16.17;;;;;;;;;;5075474;28;20281;-78
2022/10/04 07:15:53;;;;;;;23.20;16.00;;;;;;;;;;5075702;28;20199;-78
2022/10/04 07:18:23;;;;;;;23.37;16.70;;;;;;;;;;5075043;28;20289;-78
2022/10/04 07:20:54;;;;;;;23.70;16.77;;;;;;;;;;5074742;28;20667;-77
2022/10/04 07:23:24;;;;;;;22.10;16.17;;;;;;;;;;5075276;28;20281;-78
2022/10/04 07:25:55;;;;;;;27.60;17.33;;;;;;;;;;5075175;28;20231;-78
2022/10/04 07:31:14;;;;;;;23.80;15.87;;;;;;;;;;5075153;28;20768;-78
2022/10/04 07:33:44;;;;;;;24.00;16.40;;;;;;;;;;5074467;28;20234;-79
2022/10/04 07:36:12;;;;;;;23.13;16.43;;;;;;;;;;5075194;28;20282;-78
2022/10/04 07:38:44;;;;;;;22.07;16.37;;;;;;;;;;5075159;28;20286;-78
2022/10/04 07:41:19;;;;;;;20.93;15.13;;;;;;;;;;5088202;28;20548;-78
2022/10/04 07:43:50;;;;;;;20.73;15.03;;;;;;;;;;5074894;28;20675;-78
2022/10/04 07:46:20;;;;;;;20.83;15.03;;;;;;;;;;5077367;28;20200;-78
2022/10/04 07:48:48;;;;;;;21.53;15.00;;;;;;;;;;5074287;28;20199;-78
2022/10/04 07:51:19;;;;;;;20.57;14.77;;;;;;;;;;5074676;28;20203;-78
2022/10/04 07:53:50;;;;;;;18.70;13.63;;;;;;;;;;5074581;28;20291;-78
2022/10/04 07:56:22;;;;;;;16.77;13.10;;;;;;;;;;5074609;28;21002;-79
2022/10/04 07:58:55;;;;;;;19.63;13.93;;;;;;;;;;5076228;28;20706;-78
2022/10/04 08:01:30;;;;;;;17.03;12.93;;;;;;;;;;5077707;28;20740;-78
2022/10/04 08:04:12;;;;;;;15.67;12.30;;;;;;;;;;5088617;28;20309;-78
2022/10/04 08:06:42;;;;;;;14.70;11.70;;;;;;;;;;5074356;28;20195;-78
2022/10/04 08:09:24;;;;;;;15.40;11.10;;;;;;;;;;5074147;28;20200;-78
2022/10/04 08:11:57;;;;;;;13.93;10.90;;;;;;;;;;5074535;28;20556;-78
2022/10/04 08:14:30;;;;;;;12.50;10.00;;;;;;;;;;5075636;28;20289;-78
2022/10/04 08:17:06;;;;;;;13.10;10.17;;;;;;;;;;5094014;28;20241;-78
2022/10/04 08:19:39;;;;;;;11.52;8.77;;;;;;;;;;5094319;28;20289;-78
2022/10/04 08:22:11;;;;;;;9.93;8.77;;;;;;;;;;5093919;28;20285;-78
2022/10/04 08:24:44;;;;;;;11.55;8.45;;;;;;;;;;5094073;28;20289;-78
2022/10/04 08:27:27;;;;;;;9.65;7.95;;;;;;;;;;5094033;28;20285;-78
2022/10/04 08:30:02;;;;;;;10.10;7.03;;;;;;;;;;5079279;28;20298;-78
2022/10/04 08:32:44;;;;;;;7.70;6.63;;;;;;;;;;5073464;28;20190;-79
2022/10/04 08:35:30;;;;;;;8.05;6.63;;;;;;;;;;5072298;28;20281;-78
2022/10/04 08:38:05;;;;;;;11.00;6.43;;;;;;;;;;5074166;28;20570;-79
2022/10/04 08:40:48;;;;;;;6.90;5.38;;;;;;;;;;5082024;28;20210;-79
2022/10/04 08:43:26;;;;;;;7.25;5.60;;;;;;;;;;5072801;28;20314;-79
2022/10/04 08:46:12;;;;;;;7.78;5.40;;;;;;;;;;5073426;28;20224;-79
2022/10/04 08:49:01;;;;;;;7.03;4.65;;;;;;;;;;5073450;28;20235;-79
2022/10/04 08:51:51;;;;;;;4.25;3.85;;;;;;;;;;5073247;28;20195;-79
2022/10/04 08:54:39;;;;;;;2.83;1.17;;;;;;;;;;5073440;28;20195;-79
2022/10/04 08:57:14;;;;;;;2.03;1.00;;;;;;;;;;5073493;28;20199;-79
2022/10/04 08:59:59;;;;;;;1.70;0.95;;;;;;;;;;5073030;28;20237;-79
2022/10/04 09:02:43;;;;;;;1.23;0.80;;;;;;;;;;5073816;28;20254;-78
2022/10/04 09:05:21;;;;;;;2.22;1.05;;;;;;;;;;5073578;28;20203;-78
2022/10/04 09:07:58;;;;;;;1.65;1.10;;;;;;;;;;5085537;28;20285;-78
2022/10/04 09:10:35;;;;;;;1.48;0.95;;;;;;;;;;5093273;28;20198;-78
2022/10/04 09:13:32;;;;;;;1.25;1.15;;;;;;;;;;5093561;28;20289;-79
2022/10/04 09:16:05;;;;;;;1.67;1.40;;;;;;;;;;5050458;28;20734;-78
2022/10/04 09:18:50;;;;;;;1.35;1.10;;;;;;;;;;5050647;28;20235;-79
2022/10/04 09:21:24;;;;;;;2.55;1.10;;;;;;;;;;5050732;28;20204;-78
2022/10/04 09:24:11;;;;;;;2.05;0.90;;;;;;;;;;5037500;28;20224;-79
2022/10/04 09:26:44;;;;;;;1.25;0.68;;;;;;;;;;5030628;28;20258;-79
2022/10/04 09:29:26;;;;;;;1.63;0.60;;;;;;;;;;5038853;28;20215;-79
2022/10/04 09:32:20;;;;;;;1.42;0.60;;;;;;;;;;5050564;28;20295;-79
2022/10/04 09:34:59;;;;;;;0.55;0.40;;;;;;;;;;5050595;28;20192;-79
2022/10/04 09:37:33;;;;;;;1.48;0.60;;;;;;;;;;5050237;28;20235;-79
2022/10/04 09:40:15;;;;;;;0.77;0.40;;;;;;;;;;5046380;28;20227;-79
2022/10/04 09:43:04;;;;;;;0.98;0.60;;;;;;;;;;5040473;28;20226;-79
2022/10/04 09:45:38;;;;;;;1.30;0.60;;;;;;;;;;5033614;28;20279;-79
2022/10/04 09:48:18;;;;;;;2.47;0.30;;;;;;;;;;5030336;28;20231;-79
2022/10/04 09:50:58;;;;;;;1.05;0.35;;;;;;;;;;5061676;28;20637;-79
2022/10/04 09:53:33;;;;;;;0.88;0.30;;;;;;;;;;5083008;28;20234;-79
2022/10/04 09:56:10;;;;;;;1.48;0.60;;;;;;;;;;5092812;28;20189;-79
2022/10/04 09:58:57;;;;;;;0.77;0.50;;;;;;;;;;5092264;28;20229;-79
2022/10/04 10:01:28;;;;;;;2.35;0.50;;;;;;;;;;5085448;28;20287;-79
2022/10/04 10:04:06;;;;;;;1.98;0.70;;;;;;;;;;5072520;28;20222;-79
2022/10/04 10:06:48;;;;;;;1.17;0.60;;;;;;;;;;5084742;28;20233;-79
2022/10/04 10:13:38;;;;;;;1.42;0.70;;;;;;;;;;5091818;28;20234;-79
2022/10/04 10:15:13;;;;;;;1.65;1.00;;;;;;;;;;5092599;28;20193;-79
2022/10/04 10:17:43;;;;;;;2.53;0.88;;;;;;;;;;5092609;28;20231;-78
2022/10/04 10:20:37;;;;;;;0.50;0.40;;;;;;;;;;5091259;28;20198;-79
2022/10/04 10:23:19;;;;;;;1.58;0.60;;;;;;;;;;5055481;28;20309;-79
2022/10/04 10:25:53;;;;;;;1.52;0.57;;;;;;;;;;5063341;28;20226;-78
2022/10/04 10:28:27;;;;;;;0.47;0.38;;;;;;;;;;5071975;28;20229;-78
2022/10/04 10:31:08;;;;;;;0.85;0.50;;;;;;;;;;5072199;28;20234;-78
2022/10/04 10:33:50;;;;;;;0.95;0.50;;;;;;;;;;5072116;28;20191;-79
2022/10/04 10:36:33;;;;;;;0.90;0.40;;;;;;;;;;5072257;28;20234;-79
2022/10/04 10:39:10;;;;;;;0.90;0.50;;;;;;;;;;5072379;28;20237;-79
2022/10/04 10:41:46;;;;;;;0.60;0.40;;;;;;;;;;5085550;28;20205;-79
2022/10/04 10:44:22;;;;;;;1.23;0.60;;;;;;;;;;5092138;28;20226;-78
2022/10/04 10:46:57;;;;;;;1.00;0.52;;;;;;;;;;5092066;28;20263;-79
2022/10/04 10:49:35;;;;;;;3.10;0.60;;;;;;;;;;5092029;28;20208;-79
2022/10/04 10:52:21;;;;;;;1.20;0.60;;;;;;;;;;5091800;28;20281;-79
2022/10/04 10:55:07;;;;;;;0.73;0.43;;;;;;;;;;5091586;28;20190;-79
2022/10/04 10:57:51;;;;;;;0.80;0.70;;;;;;;;;;5032067;28;20204;-79
2022/10/04 11:00:21;;;;;;;1.52;0.80;;;;;;;;;;5029403;28;20787;-79
2022/10/04 11:03:10;;;;;;;1.80;1.02;;;;;;;;;;5029720;28;20434;-79
2022/10/04 11:06:02;;;;;;;3.13;1.20;;;;;;;;;;5029818;28;20587;-78
2022/10/04 11:08:44;;;;;;;1.98;1.73;;;;;;;;;;5032543;28;20240;-79
2022/10/04 11:11:26;;;;;;;3.20;2.13;;;;;;;;;;5042981;28;20282;-79
2022/10/04 11:14:12;;;;;;;3.35;1.70;;;;;;;;;;5053013;28;20274;-78
2022/10/04 11:16:52;;;;;;;1.30;0.90;;;;;;;;;;5049619;28;20283;-78
2022/10/04 11:19:36;;;;;;;1.00;0.70;;;;;;;;;;5032906;28;20771;-78
2022/10/04 11:22:24;;;;;;;1.70;1.10;;;;;;;;;;5033041;28;20204;-79
2022/10/04 11:25:03;;;;;;;1.25;0.90;;;;;;;;;;4935626;29;20314;-79
2022/10/04 11:27:36;;;;;;;1.30;0.93;;;;;;;;;;4935263;29;20290;-79
2022/10/04 11:30:08;;;;;;;1.63;0.90;;;;;;;;;;4950659;29;20335;-79
2022/10/04 11:33:09;;;;;;;1.35;0.95;;;;;;;;;;4954924;29;20392;-79
2022/10/04 11:35:46;;;;;;;1.08;0.70;;;;;;;;;;4999444;28;20202;-79
2022/10/04 11:38:21;;;;;;;1.00;0.75;;;;;;;;;;5009754;28;20283;-79
2022/10/04 11:40:58;;;;;;;1.02;0.50;;;;;;;;;;4998398;28;20201;-78
2022/10/04 11:43:36;;;;;;;0.50;0.40;;;;;;;;;;4992987;28;20221;-79
2022/10/04 11:46:11;;;;;;;0.73;0.40;;;;;;;;;;4993368;28;20209;-79
2022/10/04 11:48:41;;;;;;;0.40;0.30;;;;;;;;;;4993257;28;20224;-79
2022/10/04 11:51:26;;;;;;;0.85;0.40;;;;;;;;;;5002514;28;20289;-78
2022/10/04 11:54:06;;;;;;;0.30;0.20;;;;;;;;;;4992521;28;20785;-79
2022/10/04 11:56:41;;;;;;;0.77;0.40;;;;;;;;;;4992969;28;20202;-79
2022/10/04 11:59:17;;;;;;;0.60;0.30;;;;;;;;;;4992827;28;20268;-79
2022/10/04 12:01:58;;;;;;;0.28;0.25;;;;;;;;;;5037052;28;20216;-78
2022/10/04 12:04:39;;;;;;;1.52;0.30;;;;;;;;;;5094478;28;20229;-79
2022/10/04 12:07:25;;;;;;;0.60;0.28;;;;;;;;;;5085876;28;20249;-79
2022/10/04 12:09:59;;;;;;;0.32;0.30;;;;;;;;;;5073892;28;20195;-79
2022/10/04 12:12:46;;;;;;;0.35;0.25;;;;;;;;;;5074209;28;20226;-79
2022/10/04 12:15:33;;;;;;;0.43;0.30;;;;;;;;;;5074261;28;20226;-78
2022/10/04 12:18:16;;;;;;;0.68;0.22;;;;;;;;;;5074332;28;20293;-79
2022/10/04 12:20:52;;;;;;;0.30;0.20;;;;;;;;;;5072793;28;20289;-79
2022/10/04 12:23:30;;;;;;;0.65;0.30;;;;;;;;;;5090703;28;20213;-78
2022/10/04 12:26:05;;;;;;;0.55;0.22;;;;;;;;;;5074215;28;20222;-79
2022/10/04 12:28:41;;;;;;;0.47;0.30;;;;;;;;;;5073616;28;20265;-79
2022/10/04 12:31:22;;;;;;;0.77;0.40;;;;;;;;;;5073894;28;20234;-79
2022/10/04 12:33:53;;;;;;;0.65;0.20;;;;;;;;;;5074338;28;20198;-79
2022/10/04 12:36:38;;;;;;;0.50;0.30;;;;;;;;;;5074001;28;20199;-79
2022/10/04 12:39:24;;;;;;;0.93;0.40;;;;;;;;;;5070359;28;20721;-78
2022/10/04 12:41:57;;;;;;;0.75;0.40;;;;;;;;;;5072397;28;20230;-79
2022/10/04 12:44:29;;;;;;;0.65;0.40;;;;;;;;;;5073436;28;20266;-79
2022/10/04 12:47:02;;;;;;;1.60;0.52;;;;;;;;;;5073532;28;20199;-79
2022/10/04 12:49:34;;;;;;;1.45;0.40;;;;;;;;;;5073650;28;20288;-79
2022/10/04 12:52:05;;;;;;;0.55;0.43;;;;;;;;;;5073597;28;20231;-79
2022/10/04 12:54:38;;;;;;;0.40;0.40;;;;;;;;;;5073329;28;20249;-79
2022/10/04 12:57:32;;;;;;;1.40;0.30;;;;;;;;;;5087989;28;20230;-79
2022/10/04 13:00:03;;;;;;;1.40;0.40;;;;;;;;;;5093369;28;20313;-79
2022/10/04 13:02:38;;;;;;;0.90;0.50;;;;;;;;;;5093159;28;20310;-79
2022/10/04 13:05:11;;;;;;;1.08;0.60;;;;;;;;;;5093673;28;20257;-79
2022/10/04 13:07:44;;;;;;;0.95;0.77;;;;;;;;;;5093088;28;20199;-79
2022/10/04 13:10:35;;;;;;;1.45;0.70;;;;;;;;;;5093788;28;20252;-79
2022/10/04 13:13:23;;;;;;;1.40;0.63;;;;;;;;;;5062544;28;20231;-79
2022/10/04 13:15:57;;;;;;;1.05;0.60;;;;;;;;;;5072911;28;20238;-79
2022/10/04 13:18:27;;;;;;;1.00;0.65;;;;;;;;;;5073042;28;20207;-79
2022/10/04 13:21:00;;;;;;;1.33;0.70;;;;;;;;;;5085459;28;20298;-79
2022/10/04 13:23:35;;;;;;;1.73;0.60;;;;;;;;;;5072786;28;20195;-79
2022/10/04 13:26:14;;;;;;;1.98;0.85;;;;;;;;;;5078961;28;20218;-79
2022/10/04 13:28:46;;;;;;;1.92;0.88;;;;;;;;;;5072831;28;20305;-78
2022/10/04 13:31:16;;;;;;;1.63;0.80;;;;;;;;;;5081667;28;20282;-79
2022/10/04 13:33:46;;;;;;;1.90;1.00;;;;;;;;;;5072822;28;20238;-79
2022/10/04 13:36:17;;;;;;;1.75;0.98;;;;;;;;;;5072624;28;20245;-79
2022/10/04 13:38:53;;;;;;;1.17;0.80;;;;;;;;;;5072827;28;20610;-79
2022/10/04 13:41:26;;;;;;;1.10;0.80;;;;;;;;;;5076448;28;20285;-79
2022/10/04 13:44:14;;;;;;;1.20;0.80;;;;;;;;;;5092849;28;20310;-78
2022/10/04 13:46:47;;;;;;;1.25;0.90;;;;;;;;;;5092889;28;20638;-79
2022/10/04 13:49:24;;;;;;;1.17;0.90;;;;;;;;;;5092561;28;20233;-80
2022/10/04 13:57:30;;;;;;;3.00;1.20;;;;;;;;;;5092979;28;20279;-80
2022/10/04 14:00:02;;;;;;;3.30;1.30;;;;;;;;;;5092239;28;20226;-80
2022/10/04 14:02:48;;;;;;;2.85;1.40;;;;;;;;;;5079189;28;20210;-80
2022/10/04 14:05:27;;;;;;;1.50;1.40;;;;;;;;;;5064992;28;20322;-80
2022/10/04 14:08:07;;;;;;;3.13;1.42;;;;;;;;;;5072420;28;20286;-80
2022/10/04 14:10:49;;;;;;;3.92;1.33;;;;;;;;;;5072244;28;20293;-80
2022/10/04 14:13:32;;;;;;;3.10;1.20;;;;;;;;;;5080120;28;20661;-80
2022/10/04 14:16:13;;;;;;;3.85;1.30;;;;;;;;;;5092583;28;20194;-80
2022/10/04 14:18:53;;;;;;;2.13;1.10;;;;;;;;;;5092100;28;20289;-80
2022/10/04 14:21:38;;;;;;;1.83;1.27;;;;;;;;;;5085990;28;20278;-80
2022/10/04 14:24:24;;;;;;;2.38;1.20;;;;;;;;;;5065206;28;20345;-80
2022/10/04 14:27:19;;;;;;;1.90;1.40;;;;;;;;;;5075499;28;20289;-80
2022/10/04 14:30:02;;;;;;;2.45;1.30;;;;;;;;;;5084671;28;20218;-80
2022/10/04 14:32:40;;;;;;;1.95;1.30;;;;;;;;;;5083818;28;20198;-80
2022/10/04 14:35:10;;;;;;;2.13;1.13;;;;;;;;;;5092016;28;20257;-80
2022/10/04 14:37:48;;;;;;;2.30;1.27;;;;;;;;;;5092527;28;20233;-80
2022/10/04 14:40:28;;;;;;;2.78;1.10;;;;;;;;;;5091912;28;20605;-80
2022/10/04 14:43:14;;;;;;;2.95;1.15;;;;;;;;;;5088461;28;20190;-80
2022/10/04 14:45:45;;;;;;;3.50;1.30;;;;;;;;;;5075356;28;20223;-80
2022/10/04 14:48:39;;;;;;;1.50;1.20;;;;;;;;;;5075388;28;20237;-80
2022/10/04 14:51:21;;;;;;;1.30;1.10;;;;;;;;;;5075447;28;20234;-80
2022/10/04 14:53:54;;;;;;;1.88;1.15;;;;;;;;;;5075624;28;20205;-80
2022/10/04 14:56:36;;;;;;;2.33;1.30;;;;;;;;;;5075172;28;20206;-80
2022/10/04 14:59:09;;;;;;;2.58;1.25;;;;;;;;;;5062818;28;20702;-80
2022/10/04 15:01:40;;;;;;;2.63;1.17;;;;;;;;;;5081883;28;20671;-80
2022/10/04 15:04:19;;;;;;;2.15;1.30;;;;;;;;;;5075597;28;20333;-80
2022/10/04 15:06:48;;;;;;;2.10;1.02;;;;;;;;;;5075669;28;20230;-80
2022/10/04 15:09:34;;;;;;;2.60;1.38;;;;;;;;;;5091387;28;20198;-80
2022/10/04 15:12:02;;;;;;;1.38;1.27;;;;;;;;;;5095483;28;20237;-80
2022/10/04 15:14:36;;;;;;;3.05;1.40;;;;;;;;;;5095629;28;20282;-80
2022/10/04 15:17:06;;;;;;;2.10;1.33;;;;;;;;;;5095587;28;20236;-80
2022/10/04 15:19:38;;;;;;;3.17;1.52;;;;;;;;;;5095451;28;20657;-80
2022/10/04 15:22:12;;;;;;;2.40;1.63;;;;;;;;;;5092066;28;20244;-80
2022/10/04 15:24:47;;;;;;;3.03;1.70;;;;;;;;;;5075122;28;20277;-80
2022/10/04 15:27:28;;;;;;;1.83;1.50;;;;;;;;;;5074870;28;20286;-80
2022/10/04 15:30:02;;;;;;;3.65;1.70;;;;;;;;;;5085671;28;20221;-80
2022/10/04 15:32:34;;;;;;;3.10;1.40;;;;;;;;;;5074637;28;20207;-80
2022/10/04 15:35:06;;;;;;;2.70;1.50;;;;;;;;;;5080959;28;20750;-80
2022/10/04 15:37:41;;;;;;;1.70;1.40;;;;;;;;;;5084816;28;20257;-80
2022/10/04 15:40:29;;;;;;;1.73;1.20;;;;;;;;;;5075461;28;20206;-80